Terminal Aerodrome Forecast
Issued by NWS

Home | Current Version | Previous Version | Text Only | Print | Product List | Glossary On
Versions: 1 2 3 4 5 6 7 8 9 10 11 12 13 14 15 16 17
000
FTUS46 KMTR 280500
TAFSJC
TAF
KSJC 280536Z 2806/0106 30015G20KT P6SM FEW015 BKN040
     FM280800 28010KT P6SM FEW015 SCT040
     FM281200 19007KT P6SM BKN040
     FM282000 32007KT P6SM VCSH BKN050
     FM010300 30007KT P6SM SCT040=

USA.gov is the U.S. government's official web portal to all federal, state and local government web resources and services.